createdAt,value
2023-04-20T00:00:40.115Z,22.18
2023-04-20T00:01:40.127Z,22.18
2023-04-20T00:02:40.299Z,22.18
2023-04-20T00:03:40.279Z,22.19
2023-04-20T00:04:40.218Z,22.19
2023-04-20T00:05:40.157Z,22.18
2023-04-20T00:06:40.166Z,22.19
2023-04-20T00:07:40.169Z,22.19
2023-04-20T00:08:40.181Z,22.18
2023-04-20T00:09:40.196Z,22.19
2023-04-20T00:10:40.195Z,22.19
2023-04-20T00:11:40.209Z,22.18
2023-04-20T00:12:40.240Z,22.18
2023-04-20T00:13:40.227Z,22.18
2023-04-20T00:14:40.237Z,22.18
2023-04-20T00:15:40.290Z,22.18
2023-04-20T00:16:40.360Z,22.18
2023-04-20T00:17:40.501Z,22.18
2023-04-20T00:18:40.422Z,22.18
2023-04-20T00:19:40.491Z,22.18
2023-04-20T00:20:40.535Z,22.18
2023-04-20T00:21:40.573Z,22.18
2023-04-20T00:22:40.639Z,22.18
2023-04-20T00:23:40.677Z,22.17
2023-04-20T00:24:40.753Z,22.17
2023-04-20T00:25:40.791Z,22.18
2023-04-20T00:26:40.821Z,22.18
2023-04-20T00:27:40.884Z,22.17
2023-04-20T00:28:40.927Z,22.18
2023-04-20T00:29:40.986Z,22.18
2023-04-20T00:30:41.041Z,22.17
2023-04-20T00:31:41.106Z,22.17
2023-04-20T00:32:41.173Z,22.17
2023-04-20T00:33:41.198Z,22.17
2023-04-20T00:34:41.233Z,22.17
2023-04-20T00:35:41.307Z,22.17
2023-04-20T00:36:41.345Z,22.18
2023-04-20T00:37:41.423Z,22.17
2023-04-20T00:38:41.477Z,22.17
2023-04-20T00:39:41.515Z,22.17
2023-04-20T00:40:41.573Z,22.17
2023-04-20T00:41:41.631Z,22.17
2023-04-20T00:42:41.708Z,22.16
2023-04-20T00:43:41.737Z,22.17
2023-04-20T00:44:41.803Z,22.16
2023-04-20T00:45:41.856Z,22.16
2023-04-20T00:46:42.107Z,22.16
2023-04-20T00:47:41.976Z,22.15
2023-04-20T00:48:42.001Z,22.16
2023-04-20T00:49:42.081Z,22.16
2023-04-20T00:50:42.114Z,22.16
2023-04-20T00:51:42.150Z,22.16
2023-04-20T00:52:42.203Z,22.16
2023-04-20T00:53:42.251Z,22.15
2023-04-20T00:54:42.306Z,22.16
2023-04-20T00:55:42.364Z,22.17
2023-04-20T00:56:42.411Z,22.16
2023-04-20T00:57:42.465Z,22.16
2023-04-20T00:58:42.525Z,22.16
2023-04-20T00:59:42.608Z,22.17
2023-04-20T01:00:42.673Z,22.16
2023-04-20T01:01:42.798Z,22.17
2023-04-20T01:02:42.911Z,22.16
2023-04-20T01:03:42.824Z,22.16
2023-04-20T01:04:42.756Z,22.16
2023-04-20T01:05:42.768Z,22.17
2023-04-20T01:06:42.785Z,22.16
2023-04-20T01:07:42.821Z,22.16
2023-04-20T01:08:42.827Z,22.16
2023-04-20T01:09:42.848Z,22.16
2023-04-20T01:10:42.864Z,22.16
2023-04-20T01:11:42.872Z,22.16
2023-04-20T01:12:42.882Z,22.16
2023-04-20T01:13:42.908Z,22.16
2023-04-20T01:14:42.907Z,22.16
2023-04-20T01:15:42.985Z,22.16
2023-04-20T01:16:42.939Z,22.16
2023-04-20T01:17:43.013Z,22.16
2023-04-20T01:18:43.052Z,22.16
2023-04-20T01:19:43.116Z,22.16
2023-04-20T01:20:43.156Z,22.15
2023-04-20T01:21:43.212Z,22.15
2023-04-20T01:22:43.261Z,22.15
2023-04-20T01:23:43.320Z,22.15
2023-04-20T01:24:43.381Z,22.16
2023-04-20T01:25:43.433Z,22.15
2023-04-20T01:26:43.429Z,22.15
2023-04-20T01:27:43.457Z,22.16
2023-04-20T01:28:43.456Z,22.16
2023-04-20T01:29:43.456Z,22.16
2023-04-20T01:30:43.472Z,22.16
2023-04-20T01:31:43.532Z,22.16
2023-04-20T01:32:43.530Z,22.16
2023-04-20T01:33:43.527Z,22.16
2023-04-20T01:34:43.509Z,22.16
2023-04-20T01:35:43.516Z,22.15
2023-04-20T01:36:43.524Z,22.16
2023-04-20T01:37:43.551Z,22.15
2023-04-20T01:38:43.584Z,22.15
2023-04-20T01:39:43.755Z,22.16
2023-04-20T01:40:43.674Z,22.16
2023-04-20T01:41:43.726Z,22.16
2023-04-20T01:42:43.774Z,22.15
2023-04-20T01:43:43.778Z,22.15
2023-04-20T01:44:43.801Z,22.16
2023-04-20T01:45:43.803Z,22.15
2023-04-20T01:46:43.841Z,22.14
2023-04-20T01:47:43.839Z,22.15
2023-04-20T01:48:43.852Z,22.15
2023-04-20T01:49:43.838Z,22.15
2023-04-20T01:50:43.859Z,22.15
2023-04-20T01:51:43.876Z,22.16
2023-04-20T01:52:43.884Z,22.15
2023-04-20T01:53:43.923Z,22.15
2023-04-20T01:54:43.907Z,22.15
2023-04-20T01:55:43.911Z,22.15
2023-04-20T01:56:43.918Z,22.14
2023-04-20T01:57:43.960Z,22.14
2023-04-20T01:58:44.007Z,22.14
2023-04-20T01:59:44.069Z,22.14
2023-04-20T02:00:44.152Z,22.15
2023-04-20T02:01:44.148Z,22.15
2023-04-20T02:02:44.406Z,22.14
2023-04-20T02:03:44.387Z,22.14
2023-04-20T02:04:44.212Z,22.15
2023-04-20T02:05:44.212Z,22.13
2023-04-20T02:06:44.234Z,22.14
2023-04-20T02:07:44.252Z,22.13
2023-04-20T02:08:44.241Z,22.14
2023-04-20T02:09:44.357Z,22.14
2023-04-20T02:10:44.274Z,22.14
2023-04-20T02:11:44.285Z,22.14
2023-04-20T02:12:44.291Z,22.14
2023-04-20T02:13:44.329Z,22.14
2023-04-20T02:14:44.331Z,22.15
2023-04-20T02:15:44.362Z,22.14
2023-04-20T02:16:44.438Z,22.14
2023-04-20T02:17:44.494Z,22.14
2023-04-20T02:18:44.529Z,22.14
2023-04-20T02:19:44.592Z,22.14
2023-04-20T02:20:44.641Z,22.14
2023-04-20T02:21:44.704Z,22.14
2023-04-20T02:22:44.755Z,22.14
2023-04-20T02:23:44.828Z,22.14
2023-04-20T02:24:44.860Z,22.13
2023-04-20T02:25:44.924Z,22.14
2023-04-20T02:26:44.995Z,22.14
2023-04-20T02:27:45.034Z,22.14
2023-04-20T02:28:45.095Z,22.13
2023-04-20T02:29:45.153Z,22.14
2023-04-20T02:30:45.207Z,22.14
2023-04-20T02:31:45.321Z,22.14
2023-04-20T02:32:45.330Z,22.13
2023-04-20T02:33:45.374Z,22.14
2023-04-20T02:34:45.426Z,22.13
2023-04-20T02:35:45.492Z,22.13
2023-04-20T02:36:45.536Z,22.14
2023-04-20T02:37:45.596Z,22.13
2023-04-20T02:38:45.729Z,22.14
2023-04-20T02:39:45.741Z,22.13
2023-04-20T02:40:45.780Z,22.13
2023-04-20T02:41:45.839Z,22.13
2023-04-20T02:42:45.891Z,22.13
2023-04-20T02:43:45.963Z,22.13
2023-04-20T02:44:46.013Z,22.13
2023-04-20T02:45:46.071Z,22.13
2023-04-20T02:46:46.178Z,22.13
2023-04-20T02:47:46.174Z,22.14
2023-04-20T02:48:46.160Z,22.12
2023-04-20T02:49:46.179Z,22.12
2023-04-20T02:50:46.184Z,22.12
2023-04-20T02:51:46.203Z,22.13
2023-04-20T02:52:46.228Z,22.13
2023-04-20T02:53:46.256Z,22.12
2023-04-20T02:54:46.263Z,22.13
2023-04-20T02:55:46.269Z,22.14
2023-04-20T02:56:46.312Z,22.13
2023-04-20T02:57:46.309Z,22.13
2023-04-20T02:58:46.317Z,22.13
2023-04-20T02:59:46.360Z,22.13
2023-04-20T03:00:46.349Z,22.13
2023-04-20T03:01:46.378Z,22.13
2023-04-20T03:02:46.431Z,22.13
2023-04-20T03:03:46.775Z,22.13
2023-04-20T03:04:46.470Z,22.13
2023-04-20T03:05:46.413Z,22.13
2023-04-20T03:06:46.455Z,22.13
2023-04-20T03:07:46.524Z,22.12
2023-04-20T03:08:46.564Z,22.13
2023-04-20T03:09:46.627Z,22.13
2023-04-20T03:10:46.677Z,22.13
2023-04-20T03:11:46.785Z,22.13
2023-04-20T03:12:46.829Z,22.13
2023-04-20T03:13:46.854Z,22.13
2023-04-20T03:14:46.897Z,22.13
2023-04-20T03:15:46.980Z,22.13
2023-04-20T03:16:47.110Z,22.14
2023-04-20T03:17:47.173Z,22.13
2023-04-20T03:18:47.119Z,22.14
2023-04-20T03:19:47.167Z,22.13
2023-04-20T03:20:47.223Z,22.13
2023-04-20T03:21:47.280Z,22.13
2023-04-20T03:22:47.334Z,22.13
2023-04-20T03:23:47.405Z,22.12
2023-04-20T03:24:47.448Z,22.13
2023-04-20T03:25:47.516Z,22.13
2023-04-20T03:26:47.578Z,22.13
2023-04-20T03:27:47.647Z,22.13
2023-04-20T03:28:47.694Z,22.13
2023-04-20T03:29:47.736Z,22.13
2023-04-20T03:30:47.788Z,22.13
2023-04-20T03:31:47.883Z,22.12
2023-04-20T03:32:47.951Z,22.13
2023-04-20T03:33:47.963Z,22.13
2023-04-20T03:34:48.010Z,22.12
2023-04-20T03:35:48.074Z,22.13
2023-04-20T03:36:48.181Z,22.13
2023-04-20T03:37:48.280Z,22.12
2023-04-20T03:38:48.226Z,22.12
2023-04-20T03:39:48.276Z,22.12
2023-04-20T03:40:48.338Z,22.12
2023-04-20T03:41:48.439Z,22.12
2023-04-20T03:42:48.470Z,22.12
2023-04-20T03:43:48.556Z,22.13
2023-04-20T03:44:48.537Z,22.12
2023-04-20T03:45:48.603Z,22.12
2023-04-20T03:46:48.650Z,22.12
2023-04-20T03:47:48.757Z,22.12
2023-04-20T03:48:48.760Z,22.11
2023-04-20T03:49:48.804Z,22.11
2023-04-20T03:50:48.862Z,22.11
2023-04-20T03:51:48.909Z,22.11
2023-04-20T03:52:48.979Z,22.11
2023-04-20T03:53:49.037Z,22.12
2023-04-20T03:54:49.027Z,22.11
2023-04-20T03:55:49.032Z,22.11
2023-04-20T03:56:49.044Z,22.11
2023-04-20T03:57:49.067Z,22.11
2023-04-20T03:58:49.112Z,22.11
2023-04-20T03:59:49.109Z,22.10
2023-04-20T04:00:49.107Z,22.10
2023-04-20T04:01:49.109Z,22.10
2023-04-20T04:02:49.236Z,22.11
2023-04-20T04:03:49.503Z,22.11
2023-04-20T04:04:49.237Z,22.11
2023-04-20T04:05:49.163Z,22.10
2023-04-20T04:06:49.176Z,22.10
2023-04-20T04:07:49.201Z,22.11
2023-04-20T04:08:49.240Z,22.10
2023-04-20T04:09:49.249Z,22.10
2023-04-20T04:10:49.258Z,22.11
2023-04-20T04:11:49.268Z,22.11
2023-04-20T04:12:49.278Z,22.11
2023-04-20T04:13:49.323Z,22.11
2023-04-20T04:14:49.313Z,22.10
2023-04-20T04:15:49.324Z,22.12
2023-04-20T04:16:49.427Z,22.11
2023-04-20T04:17:49.397Z,22.11
2023-04-20T04:18:49.386Z,22.11
2023-04-20T04:19:49.387Z,22.10
2023-04-20T04:20:49.401Z,22.11
2023-04-20T04:21:49.429Z,22.11
2023-04-20T04:22:49.428Z,22.11
2023-04-20T04:23:49.421Z,22.11
2023-04-20T04:24:49.432Z,22.11
2023-04-20T04:25:49.440Z,22.11
2023-04-20T04:26:49.459Z,22.11
2023-04-20T04:27:49.467Z,22.11
2023-04-20T04:28:49.513Z,22.11
2023-04-20T04:29:49.526Z,22.11
2023-04-20T04:30:49.578Z,22.12
2023-04-20T04:31:49.708Z,22.12
2023-04-20T04:32:49.686Z,22.12
2023-04-20T04:33:49.862Z,22.12
2023-04-20T04:34:49.789Z,22.12
2023-04-20T04:35:49.977Z,22.11
2023-04-20T04:36:49.896Z,22.12
2023-04-20T04:37:49.951Z,22.11
2023-04-20T04:38:50.007Z,22.11
2023-04-20T04:39:50.058Z,22.11
2023-04-20T04:40:50.144Z,22.11
2023-04-20T04:41:50.172Z,22.11
2023-04-20T04:42:50.215Z,22.12
2023-04-20T04:43:50.273Z,22.11
2023-04-20T04:44:50.320Z,22.11
2023-04-20T04:45:50.447Z,22.11
2023-04-20T04:46:50.486Z,22.12
2023-04-20T04:47:50.560Z,22.12
2023-04-20T04:48:50.600Z,22.12
2023-04-20T04:49:50.592Z,22.12
2023-04-20T04:50:50.673Z,22.12
2023-04-20T04:51:50.869Z,22.11
2023-04-20T04:52:50.777Z,22.12
2023-04-20T04:53:50.848Z,22.12
2023-04-20T04:54:50.890Z,22.12
2023-04-20T04:55:50.922Z,22.11
2023-04-20T04:56:50.980Z,22.11
2023-04-20T04:57:51.054Z,22.11
2023-04-20T04:58:51.111Z,22.11
2023-04-20T04:59:51.158Z,22.12
2023-04-20T05:00:51.210Z,22.11
2023-04-20T05:01:51.305Z,22.12
2023-04-20T05:02:51.440Z,22.12
2023-04-20T05:03:51.459Z,22.12
2023-04-20T05:04:51.513Z,22.12
2023-04-20T05:05:51.477Z,22.11
2023-04-20T05:06:51.517Z,22.12
2023-04-20T05:07:51.576Z,22.12
2023-04-20T05:08:51.549Z,22.11
2023-04-20T05:09:51.563Z,22.11
2023-04-20T05:10:51.525Z,22.12
2023-04-20T05:11:51.525Z,22.11
2023-04-20T05:12:51.547Z,22.11
2023-04-20T05:13:51.558Z,22.12
2023-04-20T05:14:51.555Z,22.12
2023-04-20T05:15:51.569Z,22.12
2023-04-20T05:16:51.562Z,22.11
2023-04-20T05:17:51.586Z,22.11
2023-04-20T05:18:51.599Z,22.12
2023-04-20T05:19:51.596Z,22.12
2023-04-20T05:20:51.608Z,22.12
2023-04-20T05:21:51.608Z,22.12
2023-04-20T05:22:51.610Z,22.12
2023-04-20T05:23:51.705Z,22.12
2023-04-20T05:24:51.619Z,22.13
2023-04-20T05:25:51.610Z,22.13
2023-04-20T05:26:51.621Z,22.13
2023-04-20T05:27:51.675Z,22.13
2023-04-20T05:28:51.723Z,22.13
2023-04-20T05:29:51.780Z,22.14
2023-04-20T05:30:51.836Z,22.13
2023-04-20T05:31:51.913Z,22.15
2023-04-20T05:32:52.800Z,22.14
2023-04-20T05:33:51.992Z,22.15
2023-04-20T05:34:52.082Z,22.15
2023-04-20T05:35:52.054Z,22.14
2023-04-20T05:36:52.064Z,22.14
2023-04-20T05:37:52.066Z,22.15
2023-04-20T05:38:52.099Z,22.14
2023-04-20T05:39:52.134Z,22.14
2023-04-20T05:40:52.213Z,22.14
2023-04-20T05:41:52.080Z,22.14
2023-04-20T05:42:52.133Z,22.13
2023-04-20T05:43:52.110Z,22.14
2023-04-20T05:44:52.192Z,22.14
2023-04-20T05:45:52.155Z,22.14
2023-04-20T05:46:52.134Z,22.14
2023-04-20T05:47:52.159Z,22.14
2023-04-20T05:48:52.201Z,22.14
2023-04-20T05:49:52.166Z,22.14
2023-04-20T05:50:52.194Z,22.15
2023-04-20T05:51:52.197Z,22.15
2023-04-20T05:52:52.199Z,22.15
2023-04-20T05:53:52.205Z,22.15
2023-04-20T05:54:52.210Z,22.15
2023-04-20T05:55:52.251Z,22.16
2023-04-20T05:56:52.243Z,22.16
2023-04-20T05:57:52.360Z,22.16
2023-04-20T05:58:52.252Z,22.16
2023-04-20T05:59:52.254Z,22.16
2023-04-20T06:00:52.315Z,22.16
2023-04-20T06:01:52.417Z,22.16
2023-04-20T06:02:52.616Z,22.16
2023-04-20T06:03:52.641Z,22.17
2023-04-20T06:04:52.724Z,22.17
2023-04-20T06:05:52.578Z,22.17
2023-04-20T06:06:52.690Z,22.17
2023-04-20T06:07:52.708Z,22.17
2023-04-20T06:08:52.747Z,22.17
2023-04-20T06:09:52.786Z,22.17
2023-04-20T06:10:52.843Z,22.17
2023-04-20T06:11:52.929Z,22.18
2023-04-20T06:12:52.974Z,22.17
2023-04-20T06:13:52.998Z,22.17
2023-04-20T06:14:53.037Z,22.17
2023-04-20T06:15:53.106Z,22.17
2023-04-20T06:16:53.162Z,22.17
2023-04-20T06:17:53.316Z,22.17
2023-04-20T06:18:53.301Z,22.17
2023-04-20T06:19:53.315Z,22.18
2023-04-20T06:20:53.320Z,22.17
2023-04-20T06:21:53.341Z,22.17
2023-04-20T06:22:53.362Z,22.18
2023-04-20T06:23:53.358Z,22.18
2023-04-20T06:24:53.369Z,22.18
2023-04-20T06:25:53.385Z,22.18
2023-04-20T06:26:53.421Z,22.18
2023-04-20T06:27:53.419Z,22.17
2023-04-20T06:28:53.456Z,22.18
2023-04-20T06:29:53.438Z,22.18
2023-04-20T06:30:53.498Z,22.18
2023-04-20T06:31:53.721Z,22.17
2023-04-20T06:32:53.503Z,22.18
2023-04-20T06:33:53.586Z,22.19
2023-04-20T06:34:53.499Z,22.18
2023-04-20T06:35:53.494Z,22.18
2023-04-20T06:36:53.501Z,22.18
2023-04-20T06:37:53.505Z,22.18
2023-04-20T06:38:53.512Z,22.18
2023-04-20T06:39:53.532Z,22.18
2023-04-20T06:40:53.588Z,22.19
2023-04-20T06:41:53.621Z,22.19
2023-04-20T06:42:53.681Z,22.19
2023-04-20T06:43:53.740Z,22.19
2023-04-20T06:44:53.784Z,22.19
2023-04-20T06:45:53.880Z,22.19
2023-04-20T06:46:53.914Z,22.19
2023-04-20T06:47:54.242Z,22.19
2023-04-20T06:48:53.955Z,22.19
2023-04-20T06:49:54.022Z,22.19
2023-04-20T06:50:54.043Z,22.19
2023-04-20T06:51:54.097Z,22.21
2023-04-20T06:52:54.152Z,22.20
2023-04-20T06:53:54.187Z,22.20
2023-04-20T06:54:54.248Z,22.20
2023-04-20T06:55:54.288Z,22.21
2023-04-20T06:56:54.324Z,22.21
2023-04-20T06:57:54.363Z,22.21
2023-04-20T06:58:54.432Z,22.21
2023-04-20T06:59:54.495Z,22.21
2023-04-20T07:00:54.697Z,22.22
2023-04-20T07:01:54.577Z,22.22
2023-04-20T07:02:54.688Z,22.21
2023-04-20T07:03:54.783Z,22.22
2023-04-20T07:04:54.783Z,22.22
2023-04-20T07:05:54.922Z,22.22
2023-04-20T07:06:54.798Z,22.22
2023-04-20T07:07:54.925Z,22.22
2023-04-20T07:10:13.746Z,22.19
2023-04-20T07:11:13.719Z,22.21
2023-04-20T07:12:13.659Z,22.22
2023-04-20T07:13:13.697Z,22.23
2023-04-20T07:14:13.648Z,22.23
2023-04-20T07:15:13.632Z,22.23
2023-04-20T07:16:13.705Z,22.23
2023-04-20T07:17:13.656Z,22.24
2023-04-20T07:18:13.612Z,22.23
2023-04-20T07:19:13.663Z,22.24
2023-04-20T07:20:13.618Z,22.24
2023-04-20T07:21:13.609Z,22.25
2023-04-20T07:22:13.606Z,22.25
2023-04-20T07:23:13.596Z,22.25
2023-04-20T07:24:13.576Z,22.25
2023-04-20T07:25:13.653Z,22.25
2023-04-20T07:26:13.566Z,22.25
2023-04-20T07:27:13.609Z,22.25
2023-04-20T07:28:13.504Z,22.25
2023-04-20T07:29:13.530Z,22.25
2023-04-20T07:30:13.482Z,22.25
2023-04-20T07:31:13.534Z,22.26
2023-04-20T07:32:13.557Z,22.25
2023-04-20T07:33:13.454Z,22.25
2023-04-20T07:34:13.435Z,22.26
2023-04-20T07:35:13.412Z,22.26
2023-04-20T07:36:13.433Z,22.26
2023-04-20T07:37:13.480Z,22.26
2023-04-20T07:38:13.507Z,22.26
2023-04-20T07:39:13.552Z,22.27
2023-04-20T07:40:13.585Z,22.26
2023-04-20T07:41:13.631Z,22.27
2023-04-20T07:42:13.676Z,22.27
2023-04-20T07:43:13.733Z,22.27
2023-04-20T07:44:13.784Z,22.27
2023-04-20T07:45:13.824Z,22.27
2023-04-20T07:46:13.861Z,22.28
2023-04-20T07:47:13.906Z,22.28
2023-04-20T07:48:14.002Z,22.28
2023-04-20T07:49:13.994Z,22.29
2023-04-20T07:50:14.019Z,22.29
2023-04-20T07:51:14.094Z,22.29
2023-04-20T07:52:17.204Z,22.30
2023-04-20T07:53:14.103Z,22.29
2023-04-20T07:54:14.290Z,22.29
2023-04-20T07:55:14.126Z,22.30
2023-04-20T07:56:14.053Z,22.30
2023-04-20T07:57:14.041Z,22.30
2023-04-20T07:58:14.024Z,22.31
2023-04-20T07:59:14.020Z,22.30
2023-04-20T08:00:13.994Z,22.31
2023-04-20T08:01:13.993Z,22.30
2023-04-20T08:02:14.189Z,22.31
2023-04-20T08:03:14.245Z,22.31
2023-04-20T08:04:14.182Z,22.31
2023-04-20T08:05:14.169Z,22.31
2023-04-20T08:06:13.981Z,22.32
2023-04-20T08:07:14.093Z,22.32
2023-04-20T08:08:13.972Z,22.32
2023-04-20T08:09:13.955Z,22.32
2023-04-20T08:10:13.939Z,22.33
2023-04-20T08:11:13.919Z,22.33
2023-04-20T08:12:13.956Z,22.33
2023-04-20T08:13:13.893Z,22.33
2023-04-20T08:14:13.903Z,22.34
2023-04-20T08:15:13.881Z,22.34
2023-04-20T08:16:13.868Z,22.34
2023-04-20T08:17:13.878Z,22.34
2023-04-20T08:18:13.888Z,22.36
2023-04-20T08:20:13.825Z,22.35
2023-04-20T08:21:13.815Z,22.35
2023-04-20T08:22:13.856Z,22.36
2023-04-20T08:23:13.758Z,22.37
2023-04-20T08:24:13.768Z,22.36
2023-04-20T08:25:13.731Z,22.37
2023-04-20T08:26:13.700Z,22.35
2023-04-20T08:27:13.704Z,22.36
2023-04-20T08:28:24.164Z,22.36
2023-04-20T08:29:14.687Z,22.36
2023-04-20T08:30:13.624Z,22.37
2023-04-20T08:31:13.683Z,22.37
2023-04-20T08:32:13.633Z,22.37
2023-04-20T08:33:13.871Z,22.37
2023-04-20T08:34:13.576Z,22.38
2023-04-20T08:35:13.543Z,22.38
2023-04-20T08:36:13.537Z,22.38
2023-04-20T08:37:13.514Z,22.39
2023-04-20T08:38:15.907Z,22.39
2023-04-20T08:39:13.514Z,22.38
2023-04-20T08:40:13.473Z,22.39
2023-04-20T08:41:13.561Z,22.39
2023-04-20T08:42:13.411Z,22.39
2023-04-20T08:43:13.404Z,22.41
2023-04-20T08:44:13.411Z,22.41
2023-04-20T08:45:13.396Z,22.41
2023-04-20T08:46:13.363Z,22.41
2023-04-20T08:47:13.317Z,22.42
2023-04-20T08:48:13.321Z,22.43
2023-04-20T08:49:13.294Z,22.44
2023-04-20T08:50:13.286Z,22.44
2023-04-20T08:51:13.320Z,22.44
2023-04-20T08:52:13.319Z,22.45
2023-04-20T08:53:13.352Z,22.46
2023-04-20T08:54:13.445Z,22.46
2023-04-20T08:55:13.400Z,22.46
2023-04-20T08:56:13.517Z,22.46
2023-04-20T08:57:13.438Z,22.47
2023-04-20T08:58:13.468Z,22.46
2023-04-20T08:59:13.579Z,22.47
2023-04-20T09:00:14.156Z,22.47
2023-04-20T09:01:17.727Z,22.47
2023-04-20T09:02:14.564Z,22.46
2023-04-20T09:03:13.609Z,22.47
2023-04-20T09:04:13.652Z,22.47
2023-04-20T09:05:13.431Z,22.48
2023-04-20T09:06:13.372Z,22.48
2023-04-20T09:07:13.475Z,22.49
2023-04-20T09:08:13.328Z,22.48
2023-04-20T09:09:13.347Z,22.49
2023-04-20T09:10:13.329Z,22.50
2023-04-20T09:11:13.300Z,22.51
2023-04-20T09:12:13.292Z,22.50
2023-04-20T09:13:13.311Z,22.50
2023-04-20T09:14:13.252Z,22.50
2023-04-20T09:15:13.286Z,22.51
2023-04-20T09:16:13.319Z,22.51
2023-04-20T09:17:13.316Z,22.52
2023-04-20T09:18:13.328Z,22.52
2023-04-20T09:19:14.010Z,22.52
2023-04-20T09:20:13.368Z,22.52
2023-04-20T09:21:13.379Z,22.53
2023-04-20T09:22:13.393Z,22.54
2023-04-20T09:23:13.550Z,22.55
2023-04-20T09:24:13.439Z,22.55
2023-04-20T09:25:13.532Z,22.55
2023-04-20T09:26:13.457Z,22.55
2023-04-20T09:27:13.487Z,22.56
2023-04-20T09:28:13.522Z,22.56
2023-04-20T09:29:13.546Z,22.56
2023-04-20T09:30:13.551Z,22.57
2023-04-20T09:31:15.091Z,22.57
2023-04-20T09:32:13.731Z,22.57
2023-04-20T09:33:13.598Z,22.58
2023-04-20T09:34:13.640Z,22.57
2023-04-20T09:35:13.636Z,22.57
2023-04-20T09:36:13.665Z,22.58
2023-04-20T09:37:13.642Z,22.58
2023-04-20T09:38:13.642Z,22.59
2023-04-20T09:39:13.690Z,22.60
2023-04-20T09:40:13.678Z,22.61
2023-04-20T09:41:13.664Z,22.61
2023-04-20T09:42:13.687Z,22.61
2023-04-20T09:43:15.291Z,22.63
2023-04-20T09:44:13.683Z,22.63
2023-04-20T09:45:13.701Z,22.64
2023-04-20T09:46:13.740Z,22.65
2023-04-20T09:47:13.739Z,22.66
2023-04-20T09:48:13.705Z,22.66
2023-04-20T09:49:13.713Z,22.67
2023-04-20T09:50:24.840Z,22.67
2023-04-20T09:51:14.730Z,22.67
2023-04-20T09:52:13.690Z,22.66
2023-04-20T09:53:13.680Z,22.68
2023-04-20T09:54:13.659Z,22.69
2023-04-20T09:55:13.681Z,22.70
2023-04-20T09:56:13.582Z,22.70
2023-04-20T09:57:13.577Z,22.72
2023-04-20T09:58:13.529Z,22.72
2023-04-20T09:59:13.664Z,22.73
2023-04-20T10:00:13.514Z,22.75
2023-04-20T10:01:13.630Z,22.74
2023-04-20T10:02:13.552Z,22.75
2023-04-20T10:03:13.597Z,22.76
2023-04-20T10:04:13.658Z,22.76
2023-04-20T10:05:13.437Z,22.77
2023-04-20T10:06:13.393Z,22.77
2023-04-20T10:07:13.369Z,22.78
2023-04-20T10:08:13.421Z,22.78
2023-04-20T10:09:13.370Z,22.78
2023-04-20T10:10:13.329Z,22.79
2023-04-20T10:11:13.293Z,22.80
2023-04-20T10:12:13.316Z,22.80
2023-04-20T10:13:13.251Z,22.80
2023-04-20T10:14:13.271Z,22.81
2023-04-20T10:15:13.219Z,22.81
2023-04-20T10:16:13.195Z,22.82
2023-04-20T10:17:13.207Z,22.82
2023-04-20T10:18:13.198Z,22.83
2023-04-20T10:19:13.227Z,22.84
2023-04-20T10:20:13.082Z,22.84
2023-04-20T10:21:13.041Z,22.84
2023-04-20T10:22:13.066Z,22.85
2023-04-20T10:23:13.010Z,22.85
2023-04-20T10:24:13.013Z,22.86
2023-04-20T10:25:13.007Z,22.87
2023-04-20T10:26:12.945Z,22.87
2023-04-20T10:27:12.945Z,22.89
2023-04-20T10:28:12.910Z,22.89
2023-04-20T10:29:12.890Z,22.88
2023-04-20T10:30:12.886Z,22.88
2023-04-20T10:31:12.961Z,22.88
2023-04-20T10:32:12.820Z,22.88
2023-04-20T10:33:13.071Z,22.89
2023-04-20T10:34:12.796Z,22.89
2023-04-20T10:35:12.795Z,22.88
2023-04-20T10:36:12.756Z,22.89
2023-04-20T10:37:12.756Z,22.89
2023-04-20T10:38:12.701Z,22.89
2023-04-20T10:39:12.703Z,22.90
2023-04-20T10:40:13.405Z,22.90
2023-04-20T10:41:12.733Z,22.90
2023-04-20T10:42:12.631Z,22.90
2023-04-20T10:43:12.705Z,22.90
2023-04-20T10:44:12.604Z,22.90
2023-04-20T10:45:12.617Z,22.90
2023-04-20T10:46:12.588Z,22.90
2023-04-20T10:47:12.544Z,22.90
2023-04-20T10:48:12.540Z,22.90
2023-04-20T10:49:12.537Z,22.90
2023-04-20T10:50:12.575Z,22.90
2023-04-20T10:51:12.476Z,22.91
2023-04-20T10:52:12.510Z,22.91
2023-04-20T10:53:12.447Z,22.91
2023-04-20T10:54:12.449Z,22.90
2023-04-20T10:55:12.549Z,22.90
2023-04-20T10:56:12.412Z,22.90
2023-04-20T10:57:12.371Z,22.91
2023-04-20T10:58:12.367Z,22.91
2023-04-20T10:59:12.348Z,22.91
2023-04-20T11:00:12.345Z,22.91
2023-04-20T11:01:12.320Z,22.91
2023-04-20T11:02:12.395Z,22.91
2023-04-20T11:03:12.343Z,22.92
2023-04-20T11:04:12.291Z,22.93
2023-04-20T11:05:12.469Z,22.93
2023-04-20T11:06:12.261Z,22.94
2023-04-20T11:07:12.238Z,22.94
2023-04-20T11:08:12.196Z,22.96
2023-04-20T11:09:12.161Z,22.95
2023-04-20T11:10:12.162Z,22.95
2023-04-20T11:11:12.126Z,22.95
2023-04-20T11:12:12.105Z,22.95
2023-04-20T11:13:12.088Z,22.95
2023-04-20T11:14:12.071Z,22.95
2023-04-20T11:15:12.058Z,22.96
2023-04-20T11:16:12.025Z,22.96
2023-04-20T11:17:12.123Z,22.95
2023-04-20T11:18:12.169Z,22.95
2023-04-20T11:19:11.940Z,22.95
2023-04-20T11:20:11.942Z,22.95
2023-04-20T11:21:11.962Z,22.95
2023-04-20T11:22:11.905Z,22.94
2023-04-20T11:23:11.983Z,22.95
2023-04-20T11:24:11.912Z,22.94
2023-04-20T11:25:11.948Z,22.94
2023-04-20T11:26:11.925Z,22.95
2023-04-20T11:27:11.828Z,22.94
2023-04-20T11:28:11.785Z,22.95
2023-04-20T11:29:11.792Z,22.95
2023-04-20T11:30:11.755Z,22.95
2023-04-20T11:31:11.771Z,22.94
2023-04-20T11:32:11.831Z,22.96
2023-04-20T11:33:11.839Z,22.96
2023-04-20T11:34:11.702Z,22.96
2023-04-20T11:35:11.681Z,22.96
2023-04-20T11:36:11.683Z,22.96
2023-04-20T11:37:11.647Z,22.97
2023-04-20T11:38:11.653Z,22.97
2023-04-20T11:39:11.643Z,22.98
2023-04-20T11:40:11.621Z,22.97
2023-04-20T11:41:11.618Z,22.98
2023-04-20T11:42:11.734Z,22.97
2023-04-20T11:43:11.606Z,22.98
2023-04-20T11:44:11.572Z,22.97
2023-04-20T11:45:11.583Z,22.98
2023-04-20T11:46:11.697Z,22.98
2023-04-20T11:47:11.615Z,22.98
2023-04-20T11:48:11.582Z,22.98
2023-04-20T11:49:11.564Z,22.99
2023-04-20T11:50:11.557Z,22.99
2023-04-20T11:51:11.499Z,23.00
2023-04-20T11:52:11.467Z,23.00
2023-04-20T11:53:11.481Z,23.00
2023-04-20T11:54:11.465Z,23.01
2023-04-20T11:55:11.474Z,23.01
2023-04-20T11:56:11.441Z,23.02
2023-04-20T11:57:11.442Z,23.03
2023-04-20T11:58:11.414Z,23.03
2023-04-20T11:59:11.378Z,23.04
2023-04-20T12:00:11.403Z,23.03
2023-04-20T12:01:11.367Z,23.03
2023-04-20T12:02:11.403Z,23.03
2023-04-20T12:03:11.556Z,23.03
2023-04-20T12:04:11.600Z,23.04
2023-04-20T12:05:11.509Z,23.03
2023-04-20T12:06:11.317Z,23.03
2023-04-20T12:07:11.330Z,23.03
2023-04-20T12:08:11.267Z,23.03
2023-04-20T12:09:11.270Z,23.03
2023-04-20T12:10:11.256Z,23.03
2023-04-20T12:11:11.254Z,23.03
2023-04-20T12:12:11.223Z,23.03
2023-04-20T12:13:11.190Z,23.04
2023-04-20T12:14:11.226Z,23.04
2023-04-20T12:15:11.173Z,23.05
2023-04-20T12:16:11.167Z,23.05
2023-04-20T12:17:11.131Z,23.05
2023-04-20T12:18:11.135Z,23.05
2023-04-20T12:19:11.046Z,23.04
2023-04-20T12:20:11.018Z,23.05
2023-04-20T12:21:11.029Z,23.05
2023-04-20T12:22:10.981Z,23.06
2023-04-20T12:23:10.963Z,23.06
2023-04-20T12:24:10.935Z,23.05
2023-04-20T12:25:10.913Z,23.06
2023-04-20T12:26:10.885Z,23.06
2023-04-20T12:27:10.860Z,23.08
2023-04-20T12:28:10.869Z,23.07
2023-04-20T12:29:10.837Z,23.07
2023-04-20T12:30:10.784Z,23.08
2023-04-20T12:31:10.805Z,23.08
2023-04-20T12:32:10.743Z,23.07
2023-04-20T12:33:10.718Z,23.07
2023-04-20T12:34:10.703Z,23.07
2023-04-20T12:35:10.662Z,23.08
2023-04-20T12:36:10.632Z,23.08
2023-04-20T12:37:10.603Z,23.08
2023-04-20T12:38:12.791Z,23.08
2023-04-20T12:39:10.753Z,23.07
2023-04-20T12:40:10.571Z,23.07
2023-04-20T12:41:10.546Z,23.07
2023-04-20T12:42:10.503Z,23.07
2023-04-20T12:43:10.504Z,23.07
2023-04-20T12:44:11.427Z,23.06
2023-04-20T12:45:10.524Z,23.06
2023-04-20T12:46:10.529Z,23.05
2023-04-20T12:47:10.496Z,23.04
2023-04-20T12:48:10.490Z,23.05
2023-04-20T12:49:10.380Z,23.05
2023-04-20T12:50:10.386Z,23.05
2023-04-20T12:51:10.422Z,23.05
2023-04-20T12:52:10.366Z,23.05
2023-04-20T12:53:10.349Z,23.05
2023-04-20T12:54:10.281Z,23.06
2023-04-20T12:55:10.286Z,23.06